Time;durP1;ratioP1;P1;durP2;ratioP2;P2;SDS_P1;SDS_P2;PMS_P1;PMS_P2;Temp;Humidity;BMP_temperature;BMP_pressure;BME280_temperature;BME280_humidity;BME280_pressure;Samples;Min_cycle;Max_cycle;Signal;HPM_P1;HPM_P2
2023/09/03 00:00:55;;;;;;;2.20;1.92;;;20.00;99.90;;;;;;5077035;28;20033;-83
2023/09/03 00:03:20;;;;;;;5.25;1.88;;;20.00;99.90;;;;;;5077437;28;20024;-83
2023/09/03 00:05:50;;;;;;;3.33;2.30;;;19.90;99.90;;;;;;5077447;28;20476;-83
2023/09/03 00:08:16;;;;;;;3.65;1.95;;;19.90;99.90;;;;;;5077059;28;20047;-83
2023/09/03 00:10:42;;;;;;;6.40;2.13;;;19.90;99.90;;;;;;5059564;28;20024;-83
2023/09/03 00:13:08;;;;;;;3.50;1.90;;;19.90;99.90;;;;;;5059394;28;20358;-83
2023/09/03 00:15:36;;;;;;;4.13;1.92;;;19.90;99.90;;;;;;5059830;28;20127;-83
2023/09/03 00:18:02;;;;;;;5.05;1.90;;;19.90;99.90;;;;;;5076946;28;20043;-83
2023/09/03 00:20:28;;;;;;;1.83;1.58;;;19.90;99.90;;;;;;5059334;28;20025;-83
2023/09/03 00:22:53;;;;;;;3.30;1.85;;;19.90;99.90;;;;;;5059174;28;20031;-94
2023/09/03 00:25:19;;;;;;;2.83;1.67;;;19.80;99.90;;;;;;5076901;28;20060;-82
2023/09/03 00:27:45;;;;;;;3.22;1.90;;;19.80;99.90;;;;;;5059273;28;20032;-83
2023/09/03 00:30:11;;;;;;;4.03;1.75;;;19.80;99.90;;;;;;5058679;28;20021;-83
2023/09/03 00:32:36;;;;;;;3.08;1.75;;;19.80;99.90;;;;;;5059115;28;20032;-82
2023/09/03 00:35:02;;;;;;;3.17;1.70;;;19.80;99.90;;;;;;5058974;28;20028;-83
2023/09/03 00:37:27;;;;;;;5.30;1.80;;;19.80;99.90;;;;;;5059240;28;20432;-82
2023/09/03 00:39:53;;;;;;;7.95;1.90;;;19.80;99.90;;;;;;5059022;28;20120;-83
2023/09/03 00:42:18;;;;;;;2.80;1.90;;;19.80;99.90;;;;;;5058572;28;20032;-83
2023/09/03 00:44:44;;;;;;;3.05;1.77;;;19.80;99.90;;;;;;5059062;28;20051;-82
2023/09/03 00:47:10;;;;;;;8.57;1.90;;;19.80;99.90;;;;;;5058690;28;20052;-83
2023/09/03 00:49:41;;;;;;;2.05;1.63;;;19.80;99.90;;;;;;5058479;28;20048;-83
2023/09/03 00:52:07;;;;;;;3.22;1.70;;;19.70;99.90;;;;;;5058661;28;20085;-83
2023/09/03 00:54:33;;;;;;;4.60;1.52;;;19.80;99.90;;;;;;5076499;28;20110;-83
2023/09/03 00:56:59;;;;;;;3.40;1.80;;;19.70;99.90;;;;;;5059025;28;20029;-83
2023/09/03 00:59:28;;;;;;;3.22;1.85;;;19.80;99.90;;;;;;5058736;28;20028;-82
2023/09/03 01:01:55;;;;;;;3.75;1.70;;;19.80;99.90;;;;;;5076575;28;20465;-83
2023/09/03 01:04:20;;;;;;;5.45;2.53;;;19.80;99.90;;;;;;5058223;28;20111;-83
2023/09/03 01:06:49;;;;;;;3.88;1.70;;;19.70;99.90;;;;;;5058492;28;20116;-83
2023/09/03 01:09:15;;;;;;;2.80;1.50;;;19.70;99.90;;;;;;5057162;28;20111;-83
2023/09/03 01:12:22;;;;;;;3.15;1.52;;;19.70;99.90;;;;;;5076209;28;20472;-82
2023/09/03 01:15:08;;;;;;;3.53;1.50;;;19.70;99.90;;;;;;5070144;28;20078;-83
2023/09/03 01:18:13;;;;;;;5.80;1.50;;;19.70;99.90;;;;;;5058755;28;20407;-83
2023/09/03 01:20:51;;;;;;;2.63;1.42;;;19.60;99.90;;;;;;5058393;28;20047;-83
2023/09/03 01:23:40;;;;;;;3.17;1.48;;;19.60;99.90;;;;;;5075810;28;20075;-83
2023/09/03 01:26:24;;;;;;;2.55;1.45;;;19.60;99.90;;;;;;5057589;28;20035;-83
2023/09/03 01:28:50;;;;;;;2.85;1.52;;;19.60;99.90;;;;;;5058525;28;20020;-83
2023/09/03 01:31:17;;;;;;;3.92;1.70;;;19.60;99.90;;;;;;5075083;28;20044;-82
2023/09/03 01:33:45;;;;;;;3.00;1.58;;;19.60;99.90;;;;;;5075883;28;20024;-83
2023/09/03 01:36:11;;;;;;;3.42;1.77;;;19.60;99.90;;;;;;5057663;28;20107;-83
2023/09/03 01:38:38;;;;;;;3.22;1.40;;;19.60;99.90;;;;;;5058120;28;20115;-82
2023/09/03 01:41:04;;;;;;;3.00;1.50;;;19.60;99.90;;;;;;5057690;28;20035;-82
2023/09/03 01:43:30;;;;;;;3.67;1.40;;;19.50;99.90;;;;;;5075446;28;20029;-82
2023/09/03 01:46:04;;;;;;;2.40;1.40;;;19.40;99.90;;;;;;5075505;28;20060;-82
2023/09/03 01:48:54;;;;;;;1.50;1.40;;;19.40;99.90;;;;;;5075439;28;20130;-83
2023/09/03 01:51:52;;;;;;;2.33;1.38;;;19.40;99.90;;;;;;5056898;28;20033;-83
2023/09/03 01:54:55;;;;;;;1.42;1.23;;;19.40;99.90;;;;;;5057446;28;20029;-83
2023/09/03 01:57:34;;;;;;;4.18;1.40;;;19.40;99.90;;;;;;4958200;28;20058;-83
2023/09/03 02:00:07;;;;;;;1.92;1.40;;;19.30;99.90;;;;;;5047071;28;20078;-84
2023/09/03 02:02:33;;;;;;;2.08;1.40;;;19.30;99.90;;;;;;5057716;28;20542;-83
2023/09/03 02:04:59;;;;;;;3.05;1.35;;;19.30;99.90;;;;;;5057153;28;20029;-83
2023/09/03 02:07:25;;;;;;;3.53;1.50;;;19.20;99.90;;;;;;5074933;28;20025;-83
2023/09/03 02:09:51;;;;;;;4.60;1.85;;;19.20;99.90;;;;;;5057527;28;20020;-83
2023/09/03 02:12:23;;;;;;;4.25;1.63;;;19.20;99.90;;;;;;5056624;28;20170;-83
2023/09/03 02:14:52;;;;;;;2.72;1.55;;;19.20;99.90;;;;;;5057491;28;20039;-83
2023/09/03 02:17:21;;;;;;;2.95;1.40;;;19.20;99.90;;;;;;5074611;28;20036;-82
2023/09/03 02:19:49;;;;;;;1.77;1.20;;;19.20;99.90;;;;;;5057049;28;20029;-82
2023/09/03 02:22:15;;;;;;;3.00;1.45;;;19.20;99.90;;;;;;5056655;28;20029;-82
2023/09/03 02:24:41;;;;;;;4.47;1.33;;;19.20;99.90;;;;;;5074830;28;20057;-83
2023/09/03 02:27:08;;;;;;;4.82;1.70;;;19.20;99.90;;;;;;5074151;28;20029;-83
2023/09/03 02:29:33;;;;;;;1.95;1.67;;;19.10;99.90;;;;;;5057021;28;20450;-83
2023/09/03 02:31:59;;;;;;;3.10;1.33;;;19.00;99.90;;;;;;5074498;28;20035;-83
2023/09/03 02:34:25;;;;;;;3.13;1.48;;;18.90;99.90;;;;;;5074045;28;20093;-83
2023/09/03 02:36:50;;;;;;;2.35;1.50;;;19.00;99.90;;;;;;5074650;28;20028;-83
2023/09/03 02:39:16;;;;;;;3.38;1.77;;;18.90;99.90;;;;;;5056206;28;20115;-83
2023/09/03 02:41:41;;;;;;;2.35;1.45;;;18.90;99.90;;;;;;5074444;28;20381;-83
2023/09/03 02:44:09;;;;;;;3.15;1.83;;;18.90;99.90;;;;;;5056429;28;20051;-82
2023/09/03 02:46:34;;;;;;;3.90;1.70;;;18.90;99.90;;;;;;5056911;28;20028;-82
2023/09/03 02:49:00;;;;;;;2.67;1.63;;;18.90;99.90;;;;;;5073979;28;20045;-82
2023/09/03 02:51:25;;;;;;;3.90;1.75;;;18.90;99.90;;;;;;5056123;28;20087;-82
2023/09/03 02:53:51;;;;;;;2.45;1.55;;;18.90;99.90;;;;;;5074520;28;20025;-82
2023/09/03 02:56:17;;;;;;;4.80;1.60;;;18.90;99.90;;;;;;5056896;28;20029;-82
2023/09/03 02:58:45;;;;;;;3.20;1.65;;;19.00;99.90;;;;;;5057189;28;20078;-83
2023/09/03 03:01:14;;;;;;;3.58;1.77;;;19.00;99.90;;;;;;5056887;28;20131;-83
2023/09/03 03:03:43;;;;;;;2.10;1.50;;;19.00;99.90;;;;;;5075180;28;20125;-82
2023/09/03 03:06:10;;;;;;;3.03;1.60;;;19.00;99.90;;;;;;5074399;28;20029;-83
2023/09/03 03:08:35;;;;;;;3.28;1.35;;;19.00;99.90;;;;;;5057088;28;20051;-82
2023/09/03 03:11:09;;;;;;;7.22;2.00;;;19.00;99.90;;;;;;5056886;28;20465;-82
2023/09/03 03:13:35;;;;;;;2.92;1.63;;;19.00;99.90;;;;;;5074709;28;20466;-81
2023/09/03 03:16:11;;;;;;;3.85;1.60;;;19.00;99.90;;;;;;5056918;28;20035;-82
2023/09/03 03:18:39;;;;;;;2.63;1.70;;;19.00;99.90;;;;;;5074379;28;20029;-84
2023/09/03 03:21:08;;;;;;;1.90;1.50;;;19.00;99.90;;;;;;5055919;28;20030;-88
2023/09/03 03:23:38;;;;;;;2.22;1.40;;;19.00;99.90;;;;;;5074040;28;20028;-84
2023/09/03 03:26:04;;;;;;;3.40;1.50;;;19.00;99.90;;;;;;5055961;28;20030;-84
2023/09/03 03:28:34;;;;;;;1.75;1.48;;;19.00;99.90;;;;;;5056188;28;20024;-82
2023/09/03 03:31:14;;;;;;;3.05;1.80;;;19.00;99.90;;;;;;5056887;28;20466;-84
2023/09/03 03:33:41;;;;;;;2.05;1.58;;;19.00;99.90;;;;;;5077881;28;20032;-84
2023/09/03 03:36:09;;;;;;;3.80;1.73;;;19.00;99.90;;;;;;5059841;28;20025;-85
2023/09/03 03:38:35;;;;;;;3.08;1.90;;;19.00;99.90;;;;;;5078082;28;20034;-84
2023/09/03 03:41:14;;;;;;;3.90;1.80;;;19.00;99.90;;;;;;5060332;28;20119;-84
2023/09/03 03:43:42;;;;;;;3.28;1.67;;;19.00;99.90;;;;;;5060406;28;20028;-84
2023/09/03 03:46:10;;;;;;;2.92;1.83;;;19.00;99.90;;;;;;5059971;28;20025;-85
2023/09/03 03:48:36;;;;;;;4.13;1.80;;;18.90;99.90;;;;;;5059704;28;20079;-84
2023/09/03 03:51:03;;;;;;;4.03;1.70;;;18.80;99.90;;;;;;5059658;28;20036;-84
2023/09/03 03:53:29;;;;;;;2.75;1.70;;;18.80;99.90;;;;;;5059837;28;20029;-83
2023/09/03 03:56:03;;;;;;;2.50;1.63;;;18.80;99.90;;;;;;5077804;28;20477;-84
2023/09/03 03:58:30;;;;;;;3.65;1.80;;;18.70;99.90;;;;;;5060035;28;20115;-84
2023/09/03 04:00:55;;;;;;;3.13;1.98;;;18.60;99.90;;;;;;5059910;28;20553;-84
2023/09/03 04:03:27;;;;;;;3.08;1.58;;;18.60;99.90;;;;;;5059922;28;20063;-84
2023/09/03 04:06:00;;;;;;;;;;;18.60;99.90;;;;;;5060354;28;20074;-83
2023/09/03 04:08:27;;;;;;;2.85;1.67;;;18.60;99.90;;;;;;5059237;28;20007;-84
2023/09/03 04:11:04;;;;;;;4.07;1.87;;;18.60;99.90;;;;;;5059838;28;20032;-84
2023/09/03 04:13:31;;;;;;;3.50;1.90;;;18.60;99.90;;;;;;5058980;28;20059;-84
2023/09/03 04:15:57;;;;;;;3.47;1.67;;;18.60;99.90;;;;;;5077561;28;20089;-83
2023/09/03 04:18:25;;;;;;;5.47;1.60;;;18.70;99.90;;;;;;5076873;28;20032;-84
2023/09/03 04:20:58;;;;;;;5.28;1.60;;;18.60;99.90;;;;;;5059579;28;20029;-83
2023/09/03 04:23:24;;;;;;;2.70;1.50;;;18.60;99.90;;;;;;5059055;28;20028;-84
2023/09/03 04:25:51;;;;;;;2.85;1.63;;;18.60;99.90;;;;;;5059534;28;20035;-83
2023/09/03 04:28:17;;;;;;;2.35;1.83;;;18.60;99.90;;;;;;5058987;28;20529;-84
2023/09/03 04:30:43;;;;;;;4.82;1.60;;;18.60;99.90;;;;;;5076937;28;20032;-82
2023/09/03 04:33:09;;;;;;;2.05;1.48;;;18.50;99.90;;;;;;5059343;28;20033;-88
2023/09/03 04:35:35;;;;;;;3.28;1.85;;;18.50;99.90;;;;;;5059787;28;20136;-83
2023/09/03 04:38:02;;;;;;;2.80;1.55;;;18.50;99.90;;;;;;5077137;28;20055;-82
2023/09/03 04:40:28;;;;;;;4.63;2.08;;;18.50;99.90;;;;;;5058747;28;20027;-82
2023/09/03 04:42:54;;;;;;;3.58;1.60;;;18.50;99.90;;;;;;5059227;28;20469;-82
2023/09/03 04:45:19;;;;;;;4.97;1.92;;;18.50;99.90;;;;;;5058677;28;20384;-83
2023/09/03 04:47:45;;;;;;;3.60;1.77;;;18.40;99.90;;;;;;5076618;28;20078;-82
2023/09/03 04:50:10;;;;;;;2.85;1.67;;;18.30;99.90;;;;;;5076304;28;20527;-82
2023/09/03 04:52:39;;;;;;;1.98;1.65;;;18.40;99.90;;;;;;5076601;28;20433;-82
2023/09/03 04:55:05;;;;;;;1.60;1.40;;;18.40;99.90;;;;;;5058941;28;20025;-82
2023/09/03 04:57:30;;;;;;;2.70;1.52;;;18.40;99.90;;;;;;5076282;28;20369;-82
2023/09/03 04:59:56;;;;;;;3.20;1.75;;;18.40;99.90;;;;;;5076660;28;20032;-82
2023/09/03 05:02:21;;;;;;;2.45;1.63;;;18.50;99.90;;;;;;5058117;28;20060;-82
2023/09/03 05:04:47;;;;;;;2.42;1.38;;;18.50;99.90;;;;;;5058854;28;20531;-82
2023/09/03 05:07:12;;;;;;;3.33;1.40;;;18.50;99.90;;;;;;5075851;28;20020;-83
2023/09/03 05:09:38;;;;;;;2.63;1.50;;;18.40;99.90;;;;;;5058759;28;20059;-83
2023/09/03 05:12:03;;;;;;;3.85;1.70;;;18.50;99.90;;;;;;5076238;28;20031;-82
2023/09/03 05:14:29;;;;;;;3.03;1.67;;;18.40;99.90;;;;;;5057880;28;20025;-82
2023/09/03 05:16:55;;;;;;;5.15;1.80;;;18.40;99.90;;;;;;5058596;28;20059;-82
2023/09/03 05:19:20;;;;;;;3.92;1.60;;;18.50;99.90;;;;;;5076620;28;20028;-82
2023/09/03 05:21:46;;;;;;;3.88;2.08;;;18.50;99.90;;;;;;5058415;28;20033;-82
2023/09/03 05:24:11;;;;;;;2.40;1.85;;;18.50;99.90;;;;;;5075784;28;20039;-94
2023/09/03 05:26:37;;;;;;;4.63;1.63;;;18.50;99.90;;;;;;5058310;28;20419;-82
2023/09/03 05:29:02;;;;;;;4.68;1.95;;;18.50;99.90;;;;;;5075955;28;20025;-82
2023/09/03 05:31:30;;;;;;;2.83;1.77;;;18.50;99.90;;;;;;5075426;28;20067;-82
2023/09/03 05:34:00;;;;;;;3.78;1.75;;;18.50;99.90;;;;;;5058526;28;20024;-82
2023/09/03 05:36:26;;;;;;;4.10;1.90;;;18.50;99.90;;;;;;5057747;28;20155;-82
2023/09/03 05:38:52;;;;;;;3.63;1.92;;;18.50;99.90;;;;;;5058634;28;20031;-81
2023/09/03 05:41:17;;;;;;;4.28;1.70;;;18.50;99.90;;;;;;5058002;28;20033;-83
2023/09/03 05:43:43;;;;;;;4.85;1.83;;;18.50;99.90;;;;;;5057870;28;20021;-82
2023/09/03 05:46:09;;;;;;;3.65;1.65;;;18.50;99.90;;;;;;5057960;28;20024;-82
2023/09/03 05:48:34;;;;;;;5.57;1.98;;;18.50;99.90;;;;;;5057344;28;20059;-82
2023/09/03 05:51:04;;;;;;;3.15;1.80;;;18.50;99.90;;;;;;5057606;28;20486;-82
2023/09/03 05:53:33;;;;;;;4.03;2.05;;;18.60;99.90;;;;;;5057233;28;20028;-82
2023/09/03 05:56:09;;;;;;;5.15;2.30;;;18.70;99.90;;;;;;5057917;28;20021;-81
2023/09/03 05:58:35;;;;;;;2.67;1.92;;;18.70;99.90;;;;;;5057433;28;20063;-82
2023/09/03 06:01:09;;;;;;;5.68;1.98;;;18.70;99.90;;;;;;5058160;28;20036;-82
2023/09/03 06:03:35;;;;;;;3.92;2.00;;;18.80;99.90;;;;;;5075045;28;20024;-81
2023/09/03 06:06:05;;;;;;;2.83;1.95;;;18.80;99.90;;;;;;5057372;28;20035;-82
2023/09/03 06:08:31;;;;;;;2.97;2.03;;;18.80;99.90;;;;;;5057459;28;20020;-82
2023/09/03 06:10:57;;;;;;;4.70;2.65;;;18.80;99.90;;;;;;5057508;28;20020;-82
2023/09/03 06:13:23;;;;;;;4.30;2.28;;;18.80;99.90;;;;;;5074848;28;20355;-82
2023/09/03 06:15:49;;;;;;;3.30;2.20;;;18.90;99.90;;;;;;5057294;28;20082;-82
2023/09/03 06:18:15;;;;;;;3.55;2.40;;;18.90;99.90;;;;;;5056874;28;20400;-87
2023/09/03 06:20:41;;;;;;;3.78;2.13;;;19.00;99.90;;;;;;5057434;28;20116;-82
2023/09/03 06:23:07;;;;;;;4.55;2.38;;;19.00;99.90;;;;;;5074763;28;20114;-82
2023/09/03 06:25:33;;;;;;;5.68;2.50;;;18.90;99.90;;;;;;5056575;28;20351;-82
2023/09/03 06:27:59;;;;;;;4.00;2.35;;;19.00;99.90;;;;;;5057217;28;20020;-84
2023/09/03 06:30:24;;;;;;;4.68;2.40;;;19.00;99.90;;;;;;5074281;28;20369;-84
2023/09/03 06:32:50;;;;;;;3.67;1.98;;;19.00;99.90;;;;;;5074629;28;20113;-83
2023/09/03 06:35:15;;;;;;;7.35;2.75;;;19.10;99.90;;;;;;5056923;28;20127;-95
2023/09/03 06:37:41;;;;;;;4.93;2.60;;;19.20;99.90;;;;;;5057280;28;20024;-84
2023/09/03 06:40:08;;;;;;;5.53;2.75;;;19.20;99.90;;;;;;5057037;28;20487;-84
2023/09/03 06:42:34;;;;;;;6.22;3.45;;;19.20;99.90;;;;;;5056658;28;20127;-84
2023/09/03 06:44:59;;;;;;;4.95;2.88;;;19.30;99.90;;;;;;5056767;28;20105;-84
2023/09/03 06:47:25;;;;;;;6.65;3.40;;;19.30;99.90;;;;;;5074624;28;20029;-83
2023/09/03 06:49:51;;;;;;;4.25;2.75;;;19.30;99.90;;;;;;5074792;28;20534;-83
2023/09/03 06:52:18;;;;;;;4.35;2.78;;;19.40;99.90;;;;;;5074330;28;20134;-91
2023/09/03 06:54:44;;;;;;;5.68;3.22;;;19.40;99.90;;;;;;5074777;28;20454;-83
2023/09/03 06:57:09;;;;;;;6.82;2.78;;;19.40;99.90;;;;;;5057037;28;20031;-82
2023/09/03 06:59:35;;;;;;;4.80;3.33;;;19.50;99.90;;;;;;5074064;28;20113;-82
2023/09/03 07:02:01;;;;;;;6.43;3.47;;;19.60;99.90;;;;;;5056928;28;20036;-83
2023/09/03 07:04:26;;;;;;;5.10;3.80;;;19.60;99.90;;;;;;5056253;28;20029;-84
2023/09/03 07:06:52;;;;;;;5.82;2.95;;;19.60;99.90;;;;;;5073765;28;20024;-83
2023/09/03 07:09:17;;;;;;;4.10;2.95;;;19.70;99.90;;;;;;5056354;28;20539;-96
2023/09/03 07:11:43;;;;;;;6.85;3.00;;;19.70;99.90;;;;;;5056768;28;20033;-83
2023/09/03 07:14:09;;;;;;;6.65;3.30;;;19.70;99.90;;;;;;5056731;28;20504;-83
2023/09/03 07:16:35;;;;;;;5.75;3.20;;;19.70;99.90;;;;;;5056295;28;20062;-83
2023/09/03 07:19:00;;;;;;;5.38;3.28;;;19.80;99.90;;;;;;5056307;28;20055;-83
2023/09/03 07:21:26;;;;;;;6.82;3.13;;;19.80;99.90;;;;;;5056309;28;20035;-83
2023/09/03 07:23:53;;;;;;;7.15;3.20;;;19.80;99.90;;;;;;5073980;28;20377;-83
2023/09/03 07:26:19;;;;;;;8.02;3.58;;;19.80;99.90;;;;;;5055661;28;20516;-93
2023/09/03 07:28:45;;;;;;;8.48;3.28;;;19.80;99.90;;;;;;5056433;28;20025;-83
2023/09/03 07:31:10;;;;;;;10.88;4.72;;;19.80;99.90;;;;;;5074045;28;20049;-83
2023/09/03 07:33:38;;;;;;;8.30;4.03;;;19.90;99.90;;;;;;5055971;28;20036;-83
2023/09/03 07:36:10;;;;;;;9.18;4.97;;;19.90;99.90;;;;;;5056480;28;20096;-83
2023/09/03 07:38:36;;;;;;;;;;;19.90;99.90;;;;;;5056535;28;20036;-84
2023/09/03 07:41:02;;;;;;;10.57;4.70;;;19.90;99.90;;;;;;5056944;28;20373;-84
2023/09/03 07:43:27;;;;;;;6.38;4.00;;;20.00;99.90;;;;;;5073540;28;20025;-83
2023/09/03 07:45:53;;;;;;;8.93;3.97;;;20.00;99.90;;;;;;5074031;28;20025;-84
2023/09/03 07:48:20;;;;;;;7.10;3.83;;;20.00;99.90;;;;;;5073492;28;20476;-83
2023/09/03 07:50:45;;;;;;;8.93;3.97;;;20.00;99.90;;;;;;5056463;28;20036;-84
2023/09/03 07:53:11;;;;;;;11.13;4.38;;;20.10;99.90;;;;;;5056390;28;20043;-83
2023/09/03 07:55:37;;;;;;;10.18;5.00;;;20.10;99.90;;;;;;5056034;28;20154;-83
2023/09/03 07:58:02;;;;;;;11.95;5.45;;;20.20;99.90;;;;;;5056298;28;20480;-84
2023/09/03 08:00:29;;;;;;;9.23;4.85;;;20.20;99.90;;;;;;5055684;28;20028;-84
2023/09/03 08:02:54;;;;;;;9.75;4.40;;;20.20;99.90;;;;;;5074069;28;20035;-83
2023/09/03 08:05:20;;;;;;;11.25;4.80;;;20.30;99.90;;;;;;5056056;28;20025;-84
2023/09/03 08:07:46;;;;;;;10.38;5.47;;;20.40;99.90;;;;;;5056433;28;20028;-83
2023/09/03 08:10:12;;;;;;;8.15;4.22;;;20.50;99.90;;;;;;5055968;28;20047;-83
2023/09/03 08:12:37;;;;;;;10.00;4.55;;;20.60;99.90;;;;;;5055600;28;20132;-84
2023/09/03 08:15:03;;;;;;;8.95;3.80;;;20.60;99.90;;;;;;5056007;28;20020;-84
2023/09/03 08:17:32;;;;;;;7.63;3.90;;;20.60;99.90;;;;;;5074786;28;20040;-84
2023/09/03 08:19:57;;;;;;;6.18;3.35;;;20.70;99.90;;;;;;5059393;28;20036;-84
2023/09/03 08:22:23;;;;;;;6.72;3.20;;;20.80;99.90;;;;;;5059055;28;20028;-85
2023/09/03 08:24:48;;;;;;;7.55;3.15;;;20.80;99.90;;;;;;5076920;28;20070;-84
2023/09/03 08:27:14;;;;;;;4.68;2.92;;;20.80;99.90;;;;;;5077174;28;20032;-84
2023/09/03 08:29:40;;;;;;;4.78;2.80;;;20.90;99.90;;;;;;5059026;28;20099;-84
2023/09/03 08:32:06;;;;;;;7.57;3.33;;;20.90;99.90;;;;;;5077116;28;20393;-84
2023/09/03 08:34:31;;;;;;;4.30;2.58;;;21.00;99.90;;;;;;5059118;28;20461;-84
2023/09/03 08:36:57;;;;;;;5.13;2.45;;;21.00;99.90;;;;;;5059210;28;20028;-84
2023/09/03 08:39:23;;;;;;;4.07;2.70;;;21.10;99.90;;;;;;5059059;28;20032;-88
2023/09/03 08:41:49;;;;;;;4.07;2.67;;;21.00;99.90;;;;;;5059246;28;20477;-83
2023/09/03 08:44:30;;;;;;;5.15;2.97;;;21.10;99.90;;;;;;5059114;28;20031;-82
2023/09/03 08:46:59;;;;;;;4.45;2.60;;;21.10;99.90;;;;;;5059247;28;20028;-84
2023/09/03 08:49:29;;;;;;;3.20;2.50;;;21.10;99.90;;;;;;5044336;28;20049;-84
2023/09/03 08:51:56;;;;;;;3.05;2.13;;;21.20;99.90;;;;;;5035792;28;20041;-84
2023/09/03 08:54:22;;;;;;;6.82;2.45;;;21.20;99.90;;;;;;5035766;28;20525;-85
2023/09/03 08:56:49;;;;;;;4.65;2.60;;;21.30;99.90;;;;;;5035525;28;20072;-85
2023/09/03 08:59:14;;;;;;;8.00;2.70;;;21.50;99.90;;;;;;5035459;28;20033;-85
2023/09/03 09:01:40;;;;;;;3.95;2.22;;;21.50;99.90;;;;;;5035904;28;20167;-85
2023/09/03 09:04:06;;;;;;;3.30;2.20;;;21.60;99.90;;;;;;5036581;28;20026;-85
2023/09/03 09:06:33;;;;;;;8.65;2.55;;;21.70;99.90;;;;;;5036042;28;20056;-84
2023/09/03 09:08:59;;;;;;;4.65;2.38;;;21.70;99.90;;;;;;5035719;28;20029;-84
2023/09/03 09:11:38;;;;;;;4.82;2.45;;;21.70;99.90;;;;;;5036857;28;20043;-88
2023/09/03 09:14:08;;;;;;;3.20;1.90;;;21.80;99.90;;;;;;5043391;28;20026;-86
2023/09/03 09:16:33;;;;;;;7.15;2.40;;;21.80;99.90;;;;;;5045187;28;20083;-82
2023/09/03 09:19:02;;;;;;;3.13;1.75;;;21.90;99.90;;;;;;5036612;28;20029;-82
2023/09/03 09:21:31;;;;;;;3.05;2.15;;;21.90;99.90;;;;;;5043910;28;20033;-89
2023/09/03 09:24:01;;;;;;;3.17;1.80;;;21.90;99.90;;;;;;5044772;28;20382;-82
2023/09/03 09:26:31;;;;;;;2.05;1.55;;;22.00;99.90;;;;;;5049372;28;20036;-86
2023/09/03 09:29:02;;;;;;;3.60;1.67;;;22.00;99.90;;;;;;5046686;28;20029;-82
2023/09/03 09:31:29;;;;;;;2.40;1.70;;;22.00;99.90;;;;;;5048173;28;20536;-91
2023/09/03 09:33:55;;;;;;;5.13;1.60;;;22.10;99.90;;;;;;5045492;28;20032;-83
2023/09/03 09:36:20;;;;;;;4.72;1.75;;;22.20;99.90;;;;;;5047336;28;20025;-82
2023/09/03 09:38:46;;;;;;;2.63;1.70;;;22.30;99.90;;;;;;5045177;28;20033;-81
2023/09/03 09:41:25;;;;;;;2.17;1.67;;;22.40;99.90;;;;;;5043815;28;20021;-82
2023/09/03 09:43:51;;;;;;;4.03;1.77;;;22.30;99.90;;;;;;5042829;28;20040;-82
2023/09/03 09:46:28;;;;;;;4.43;1.58;;;22.30;99.90;;;;;;5047907;28;20033;-83
2023/09/03 09:48:55;;;;;;;5.00;1.52;;;22.40;99.90;;;;;;5059752;28;20051;-83
2023/09/03 09:51:20;;;;;;;2.92;1.73;;;22.40;99.90;;;;;;5079717;28;20029;-83
2023/09/03 09:53:54;;;;;;;2.92;1.30;;;22.40;99.90;;;;;;5085502;28;20373;-82
2023/09/03 09:56:20;;;;;;;3.75;1.70;;;22.40;99.90;;;;;;5067163;28;20030;-82
2023/09/03 09:58:45;;;;;;;3.53;1.60;;;22.40;99.90;;;;;;5066103;28;20024;-81
2023/09/03 10:01:11;;;;;;;2.47;1.60;;;22.40;99.90;;;;;;5083159;28;20024;-82
2023/09/03 10:03:42;;;;;;;1.67;1.40;;;22.30;99.90;;;;;;5086224;28;20020;-82
2023/09/03 10:06:08;;;;;;;2.83;1.48;;;22.30;99.90;;;;;;5067207;28;20531;-82
2023/09/03 10:08:35;;;;;;;1.75;1.40;;;22.30;99.90;;;;;;5065797;28;20020;-86
2023/09/03 10:11:00;;;;;;;4.03;1.60;;;22.40;99.90;;;;;;5087863;28;20020;-82
2023/09/03 10:13:26;;;;;;;1.90;1.60;;;22.30;99.90;;;;;;5081547;28;20531;-82
2023/09/03 10:15:52;;;;;;;2.28;1.50;;;22.40;99.90;;;;;;5081491;28;20028;-82
2023/09/03 10:18:19;;;;;;;2.15;1.65;;;22.50;99.90;;;;;;5083257;28;20090;-82
2023/09/03 10:20:47;;;;;;;5.68;1.80;;;22.50;99.90;;;;;;5069605;28;20029;-82
2023/09/03 10:23:16;;;;;;;2.67;1.80;;;22.50;99.90;;;;;;5066709;28;20035;-82
2023/09/03 10:25:42;;;;;;;3.08;1.80;;;22.60;99.90;;;;;;5086058;28;20115;-83
2023/09/03 10:28:09;;;;;;;1.52;1.40;;;22.60;99.90;;;;;;5071076;28;20111;-82
2023/09/03 10:30:39;;;;;;;1.98;1.50;;;22.70;99.90;;;;;;5072173;28;20028;-83
2023/09/03 10:33:07;;;;;;;2.38;1.40;;;22.70;99.90;;;;;;5071298;28;20130;-82
2023/09/03 10:35:33;;;;;;;4.65;1.50;;;22.70;99.90;;;;;;5093515;28;20028;-90
2023/09/03 10:37:58;;;;;;;2.58;1.65;;;22.80;99.90;;;;;;5091015;28;20541;-82
2023/09/03 10:40:27;;;;;;;1.88;1.38;;;22.80;99.90;;;;;;5064577;28;20035;-82
2023/09/03 10:43:14;;;;;;;2.95;1.58;;;22.90;99.90;;;;;;5068057;28;20020;-82
2023/09/03 10:45:40;;;;;;;3.33;1.65;;;22.90;99.90;;;;;;5067965;28;20036;-83
2023/09/03 10:48:06;;;;;;;1.98;1.40;;;23.00;99.90;;;;;;5065815;28;20028;-82
2023/09/03 10:50:48;;;;;;;3.05;1.33;;;23.00;99.90;;;;;;5086275;28;20498;-86
2023/09/03 10:53:35;;;;;;;1.70;1.25;;;23.00;99.90;;;;;;5062559;28;20037;-82
2023/09/03 10:56:14;;;;;;;3.70;1.30;;;23.00;99.90;;;;;;5068905;28;20119;-82
2023/09/03 10:58:55;;;;;;;2.97;1.30;;;23.10;99.90;;;;;;5066553;28;20024;-83
2023/09/03 11:01:23;;;;;;;;;;;23.20;99.90;;;;;;5090568;28;20035;-82
2023/09/03 11:03:52;;;;;;;2.47;1.40;;;23.20;99.90;;;;;;5066061;28;20297;-81
2023/09/03 11:06:31;;;;;;;2.25;1.50;;;23.30;99.90;;;;;;5083879;28;20028;-83
2023/09/03 11:09:06;;;;;;;1.67;1.13;;;23.30;99.90;;;;;;5062708;28;20032;-83
2023/09/03 11:11:35;;;;;;;1.75;1.27;;;23.40;99.90;;;;;;5067742;28;20032;-83
2023/09/03 11:14:02;;;;;;;1.80;1.33;;;23.40;99.90;;;;;;5083593;28;20021;-83
2023/09/03 11:16:32;;;;;;;1.48;1.10;;;23.50;99.90;;;;;;5085991;28;20024;-82
2023/09/03 11:19:00;;;;;;;1.75;1.30;;;23.60;99.90;;;;;;5089259;28;20031;-81
2023/09/03 11:21:27;;;;;;;1.60;1.38;;;23.60;99.90;;;;;;5086544;28;20032;-82
2023/09/03 11:24:02;;;;;;;1.85;1.25;;;23.60;99.90;;;;;;5060595;28;20024;-83
2023/09/03 11:26:30;;;;;;;3.47;1.30;;;23.60;99.90;;;;;;5076591;28;20024;-83
2023/09/03 11:28:56;;;;;;;2.00;1.80;;;23.70;99.90;;;;;;5067044;28;20032;-83
2023/09/03 11:31:26;;;;;;;3.15;1.25;;;23.80;99.90;;;;;;5061206;28;20025;-83
2023/09/03 11:33:53;;;;;;;4.50;1.47;;;23.80;99.90;;;;;;5064255;28;20028;-83
2023/09/03 11:36:21;;;;;;;1.77;1.23;;;23.80;99.90;;;;;;5080795;28;20318;-83
2023/09/03 11:38:49;;;;;;;4.10;1.40;;;23.90;99.90;;;;;;5082532;28;20068;-84
2023/09/03 11:41:17;;;;;;;2.50;1.67;;;23.90;99.90;;;;;;5064196;28;20024;-84
2023/09/03 11:43:42;;;;;;;1.58;1.33;;;23.90;99.90;;;;;;5063062;28;20347;-83
2023/09/03 11:46:13;;;;;;;3.78;1.50;;;24.00;99.90;;;;;;5068453;28;20051;-83
2023/09/03 11:48:39;;;;;;;2.10;1.45;;;24.00;99.90;;;;;;5064264;28;20059;-84
2023/09/03 11:51:05;;;;;;;2.70;1.50;;;24.10;99.90;;;;;;5065655;28;20477;-84
2023/09/03 11:53:39;;;;;;;2.83;1.45;;;24.10;99.90;;;;;;5089987;28;20035;-83
2023/09/03 11:56:04;;;;;;;1.98;1.65;;;24.30;99.90;;;;;;5071449;28;20098;-83
2023/09/03 11:58:31;;;;;;;2.03;1.63;;;24.30;99.90;;;;;;5078791;28;20024;-83
2023/09/03 12:00:57;;;;;;;1.98;1.70;;;24.30;99.90;;;;;;5067188;28;20034;-84
2023/09/03 12:03:24;;;;;;;2.83;1.58;;;24.40;99.90;;;;;;5095821;28;20114;-83
2023/09/03 12:05:49;;;;;;;3.95;1.65;;;24.50;99.90;;;;;;5095874;28;20038;-83
2023/09/03 12:08:15;;;;;;;2.58;1.45;;;24.60;99.90;;;;;;5062435;28;20109;-84
2023/09/03 12:10:50;;;;;;;3.05;1.40;;;24.70;99.90;;;;;;5088895;28;20025;-84
2023/09/03 12:13:32;;;;;;;2.15;1.20;;;24.80;99.90;;;;;;5067024;28;20032;-82
2023/09/03 12:16:09;;;;;;;2.45;1.50;;;24.90;99.90;;;;;;5090747;28;20027;-83
2023/09/03 12:18:36;;;;;;;1.85;1.30;;;25.00;99.90;;;;;;5065111;28;20028;-82
2023/09/03 12:21:03;;;;;;;2.60;1.33;;;25.10;99.90;;;;;;5096873;28;20119;-83
2023/09/03 12:23:29;;;;;;;1.88;1.23;;;25.20;99.90;;;;;;5095953;28;20039;-82
2023/09/03 12:25:54;;;;;;;1.48;1.30;;;25.30;99.90;;;;;;5089540;28;20024;-82
2023/09/03 12:28:37;;;;;;;3.10;1.35;;;25.40;99.90;;;;;;5073045;28;20071;-83
2023/09/03 12:31:05;;;;;;;1.23;1.13;;;25.50;99.90;;;;;;5095209;28;20086;-82
2023/09/03 12:33:34;;;;;;;1.70;1.00;;;25.70;99.90;;;;;;5075532;28;20074;-83
2023/09/03 12:36:08;;;;;;;2.10;1.67;;;25.70;99.90;;;;;;5060061;28;20346;-83
2023/09/03 12:38:56;;;;;;;1.45;1.10;;;25.80;99.90;;;;;;5089145;28;20025;-83
2023/09/03 12:41:24;;;;;;;1.75;1.23;;;26.00;99.90;;;;;;5080785;28;20029;-82
2023/09/03 12:43:50;;;;;;;1.38;1.10;;;26.10;99.90;;;;;;5059372;28;20042;-83
2023/09/03 12:46:16;;;;;;;1.52;0.90;;;26.10;99.90;;;;;;5064727;28;20028;-83
2023/09/03 12:49:02;;;;;;;1.60;1.10;;;26.00;99.90;;;;;;5081733;28;20493;-83
2023/09/03 12:51:27;;;;;;;2.50;0.98;;;26.10;99.90;;;;;;5077403;28;20032;-84
2023/09/03 12:53:53;;;;;;;1.48;1.20;;;26.10;99.90;;;;;;5086830;28;20028;-83